x

San Clemente Basin - 27nm Se Of San Clemente Is, Ca (46086) Wave Buoy

5:50pm - Mon 23rd Oct 2017 All times are PDT. -7 hours from GMT.

  • Sig Wave height 5.9ft
  • Swell Direction
  • Peak Period 12s
  • Average Period 9s
  • Wind
    9mph, 11mph gusts
  • Sea Temp 70°f
  • Air Temp 74°f
  • Sea Pressure 1015.1mb
  • San Clemente Basin - 27nm Se Of San Clemente Is, Ca
  • San Clemente Basin - 27nm Se Of San Clemente Is, Ca

More Historic Weather Station data

Upgrade to MSW Pro to gain access to the past 30 days of data for over 8000 Wavebouys and Weather Stations around the globe.

Join

Comparision Forecast

View Surf forecast
   
Mon 10/23 5:50pm 6ft 12s 9s 9 11 mph 1015.1mb 70f 74f
4:50pm 6ft 12s 9s 9 11 mph 1015.2mb 71f 73f
3:50pm 5.5ft 12s 9s 9 9 mph 1015.4mb 71f 73f
2:50pm 6ft 16s 9s 9 11 mph 1015.7mb 71f 74f
1:50pm 6ft 13s 10s 7 7 mph 1016.2mb 72f 73f
12:50pm 6ft 13s 9s  -  2 mph 1017.3mb 71f 73f
11:50am 5.5ft 13s 10s 4 7 mph 1017.8mb 70f 72f
10:50am 5ft 13s 9s 7 9 mph 1017.9mb 70f 71f
9:50am 5.5ft 16s 9s 9 9 mph 1018.2mb 69f 70f
8:50am 5.5ft 17s 10s 4 4 mph 1018.2mb 69f 70f
7:50am 5ft 13s 9s 4 7 mph 1017.5mb 69f 70f
6:50am 5ft 17s 9s 4 7 mph 1017.1mb 69f 70f
5:50am 5ft 13s 9s 2 4 mph 1017mb 69f 70f
4:50am 5.5ft 17s 9s 4 7 mph 1016.8mb 69f 70f
3:50am 5.5ft 17s 9s 7 9 mph 1016.7mb 69f 70f
2:50am 5ft 17s 8s 7 9 mph 1017mb 69f 70f
1:50am 6ft 13s 9s 7 7 mph 1017.4mb 69f 69f
12:50am 6.5ft 17s 9s 4 4 mph 1017.6mb 69f 69f
Sun 10/22 11:50pm 6ft 12s 8s  -  0 mph 1017.8mb 69f 69f
10:50pm 6.5ft 14s 9s 2 4 mph 1018mb 69f 70f
9:50pm 6ft 17s 9s 4 7 mph 1018mb 70f 70f
8:50pm 6ft 17s 8s 9 11 mph 1017.6mb 70f 70f
7:50pm 7ft 13s 9s 11 13 mph 1017.7mb 70f 71f
6:50pm 6.5ft 14s 9s 13 18 mph 1017.2mb 70f 71f
5:50pm 6ft 14s 8s 11 16 mph 1017.3mb 71f 72f
4:50pm 6ft 13s 8s 9 11 mph 1017.6mb 71f 72f
3:50pm 6ft 14s 8s 7 9 mph 1017.8mb 71f 71f
2:50pm 6.5ft 12s 9s 7 7 mph 1017.8mb 71f 71f
1:50pm 6ft 14s 8s 4 7 mph 1018.5mb 71f 71f
12:50pm 6.5ft 14s 9s 7 7 mph 1019.4mb 70f 70f
11:50am 6.5ft 14s 9s 4 7 mph 1019.8mb 70f 70f
10:50am 6.5ft 13s 9s 7 7 mph 1019.6mb 69f 70f
9:50am 6.5ft 12s 9s 7 9 mph 1019.8mb 69f 71f
8:50am 7ft 15s 9s 9 11 mph 1019.3mb 69f 70f
7:50am 7ft 15s 9s 7 7 mph 1018.7mb 69f 70f
6:50am 7ft 14s 8s 7 7 mph 1018.1mb 69f 70f
5:50am 7.5ft 14s 9s 9 11 mph 1017.9mb 69f 70f
4:50am 7ft 15s 8s 9 11 mph 1018mb 69f 70f
3:50am 7ft 15s 8s 7 9 mph 1018.1mb 69f 70f
2:50am 8ft 15s 8s 9 11 mph 1018.4mb 69f 69f
1:50am 8ft 15s 8s 9 11 mph 1018.7mb 69f 69f
12:50am 7ft 14s 8s 7 9 mph 1018.7mb 69f 69f
Sat 10/21 11:50pm 8ft 15s 8s 9 13 mph 1018.7mb 69f 69f
10:50pm 7.5ft 13s 8s 7 9 mph 1018.7mb 69f 69f
9:50pm 8.5ft 16s 8s 11 13 mph 1018.4mb 69f 69f
8:50pm 8.5ft 14s 8s 11 16 mph 1017.9mb 69f 69f
7:50pm 8.5ft 15s 8s 11 13 mph 1017.5mb 69f 68f
5:50pm 9ft 12s 8s 16 20 mph 1016.6mb 69f 68f
4:50pm 8.5ft 16s 8s 13 16 mph 1016.4mb 69f 68f
3:50pm 9ft 16s 8s 13 18 mph 1016.1mb 69f 68f
2:50pm 9.5ft 15s 9s 11 13 mph 1016.2mb 69f 67f
1:50pm 9ft 16s 8s 13 16 mph 1016.7mb 69f 67f
12:50pm 10ft 17s 8s 11 13 mph 1017.4mb 69f 67f
11:50am 10ft 16s 9s 11 16 mph 1017.6mb 69f 67f
10:50am 8.5ft 14s 8s 11 13 mph 1017.9mb 69f 67f
9:50am 10ft 17s 9s 11 16 mph 1017.3mb 69f 67f
8:50am 10ft 17s 8s 9 13 mph 1016.8mb 69f 67f
7:50am 10ft 16s 9s 11 13 mph 1015.9mb 69f 66f
6:50am 11ft 17s 9s 11 13 mph 1015.5mb 69f 66f
5:50am 11ft 17s 8s 11 16 mph 1014.9mb 69f 66f
4:50am 10.5ft 15s 8s 11 16 mph 1014.8mb 69f 66f
3:50am 10ft 17s 8s 11 16 mph 1015mb 69f 65f
2:50am 11ft 17s 8s 11 16 mph 1015.3mb 69f 65f
1:50am 10ft 8s 7s 16 20 mph 1015.2mb 69f 65f
12:50am 11ft 17s 8s 20 25 mph 1015.2mb 69f 65f
Fri 10/20 11:50pm 10ft 9s 7s 20 27 mph 1014.8mb 69f 65f
10:50pm 11.5ft 8s 7s 25 29 mph 1014.7mb 69f 65f
9:50pm 10ft 8s 7s 25 29 mph 1014.3mb 69f 65f
8:50pm 9.5ft 17s 7s 27 31 mph 1014.4mb 69f 65f
7:50pm 9.5ft 19s 7s 25 29 mph 1014.3mb 69f 65f
6:50pm 8ft 19s 7s 25 29 mph 1014mb 69f 65f
5:50pm 8ft 19s 7s 22 27 mph 1013.8mb 70f 65f
4:50pm 7.5ft 19s 6s 22 27 mph 1013.9mb 70f 65f
3:50pm 7ft 6s 6s 22 27 mph 1014.2mb 70f 65f
2:50pm 6.5ft 6s 6s 20 25 mph 1014.6mb 70f 66f
1:50pm 6ft 7s 6s 22 27 mph 1014.4mb 70f 67f
12:50pm 6ft 6s 5s 25 29 mph 1014.8mb 70f 66f
11:50am 5.5ft 6s 6s 18 22 mph 1015.8mb 70f 66f
10:50am 5.5ft 7s 6s 16 20 mph 1015.8mb 70f 66f
9:50am 6ft 6s 6s 20 22 mph 1015.6mb 70f 66f
8:50am 6ft 6s 5s 22 27 mph 1015.5mb 70f 66f
7:50am 7ft 7s 6s 22 27 mph 1015.1mb 70f 66f
6:50am 6ft 7s 6s 25 29 mph 1014.8mb 70f 66f
5:50am 5.5ft 7s 6s 20 25 mph 1014.3mb 70f 67f
4:50am 6ft 15s 6s 18 20 mph 1013.6mb 70f 67f
3:50am 6ft 14s 6s 18 22 mph 1013.6mb 70f 67f
2:50am 6ft 7s 6s 16 20 mph 1013.8mb 70f 67f